• Join FlightAware (Why Join?)
  • Login
  • US Flag 
08:40AM EDT


 

Airport Tracker/Info


-or-


 

Live Flight TrackerFlight Track Log ✈ AMF294 ✈ 30-Apr-2013 ✈ KSAC - KBUR

Flight Track Log - Related Links

Times and Time Zones

All times are in EDT time to prevent confusion due to time zone crossing. See the AMF294 flight status page for this flight to view local times or setup timezone preferences in your user account.

Time Position Orientation Groundspeed Altitude Reporting Facility
EDT Latitude Longitude Course Direction KTS MPH feet Rate Location/Type
05:45PM 38.5000 -121.5667 237° Southwest 130 150 2,400  Level Northern Cal TRACON
05:46PM 38.4500 -121.5667 180° South 163 188 3,300 1,020 Climbing Northern Cal TRACON
05:47PM 38.4167 -121.5333 142° Southeast 162 186 4,500 1,140 Climbing Northern Cal TRACON
05:48PM 38.3833 -121.4833 130° Southeast 159 183 5,600 1,140 Climbing Northern Cal TRACON
05:49PM 38.3667 -121.4500 123° Southeast 152 175 6,800 1,020 Climbing Northern Cal TRACON
05:50PM 38.3333 -121.4167 142° Southeast 155 178 7,800 840 Climbing Northern Cal TRACON
05:51PM 38.2833 -121.3667 142° Southeast 165 190 8,600 600 Climbing Northern Cal TRACON
05:52PM 38.2500 -121.3333 142° Southeast 178 205 9,000 180 Climbing Northern Cal TRACON
05:53PM 38.2167 -121.2833 130° Southeast 184 212 9,000  Level Northern Cal TRACON
05:54PM 38.1833 -121.2500 142° Southeast 172 198 9,000  Level Northern Cal TRACON
05:55PM 38.1500 -121.2167 142° Southeast 178 205 9,000  Level Northern Cal TRACON
05:56PM 38.1000 -121.1667 142° Southeast 180 207 9,000  Level Northern Cal TRACON
05:57PM 38.0667 -121.1333 142° Southeast 183 211 9,000  Level Northern Cal TRACON
05:58PM 38.0419 -121.0889 125° Southeast 182 209 9,000  Level Oakland Center
05:59PM 38.0061 -121.0458 137° Southeast 179 206 9,000  Level Oakland Center
06:00PM 37.9864 -120.9917 115° Southeast 171 197 9,000  Level Oakland Center
06:01PM 37.9667 -120.9361 114° Southeast 172 198 9,000  Level Oakland Center
06:02PM 37.9367 -120.8894 129° Southeast 178 205 9,000  Level Oakland Center
06:03PM 37.8981 -120.8519 143° Southeast 175 201 9,000  Level Oakland Center
06:04PM 37.8533 -120.8056 141° Southeast 173 199 9,000  Level Oakland Center
06:05PM 37.8156 -120.7667 141° Southeast 175 201 9,000  Level Oakland Center
06:06PM 37.7833 -120.7333 141° Southeast 174 200 9,000  Level Northern Cal TRACON
06:07PM 37.7333 -120.7000 152° Southeast 174 200 9,000  Level Northern Cal TRACON
06:08PM 37.7000 -120.6500 130° Southeast 176 203 9,000  Level Northern Cal TRACON
06:09PM 37.6667 -120.6167 142° Southeast 174 200 9,000  Level Northern Cal TRACON
06:10PM 37.6333 -120.5833 142° Southeast 175 201 9,000  Level Northern Cal TRACON
06:11PM 37.6000 -120.5333 130° Southeast 175 201 9,000  Level Northern Cal TRACON
06:12PM 37.5500 -120.5000 152° Southeast 175 201 9,000  Level Northern Cal TRACON
06:13PM 37.5167 -120.4500 130° Southeast 175 201 9,000  Level Northern Cal TRACON
06:14PM 37.4833 -120.4167 142° Southeast 175 201 9,000  Level Northern Cal TRACON
06:15PM 37.4500 -120.3833 142° Southeast 176 203 9,000  Level Northern Cal TRACON
06:16PM 37.4000 -120.3333 142° Southeast 175 201 9,000 -120 Level Northern Cal TRACON
06:16PM 37.3981 -120.3289 119° Southeast 174 200 8,900 -120 Descending Oakland Center
06:17PM 37.3608 -120.2908 141° Southeast 173 199 8,900  Level Oakland Center
06:18PM 37.3206 -120.2578 147° Southeast 173 199 8,900  Level Oakland Center
06:19PM 37.2831 -120.2206 142° Southeast 171 197 8,900  Level Oakland Center
06:20PM 37.2467 -120.1825 140° Southeast 171 197 8,900  Level Oakland Center
06:21PM 37.2100 -120.1458 141° Southeast 169 194 8,900  Level Oakland Center
06:22PM 37.1728 -120.1106 143° Southeast 167 192 8,900  Level Oakland Center
06:23PM 37.1300 -120.0681 142° Southeast 172 198 8,900  Level Oakland Center
06:24PM 37.0942 -120.0317 141° Southeast 170 196 8,900  Level Oakland Center
06:25PM 37.0575 -119.9939 141° Southeast 168 193 8,900  Level Oakland Center
06:27PM 37.0200 -119.9569 142° Southeast 171 197 8,900  Level Oakland Center
06:28PM 36.9822 -119.9197 142° Southeast 172 198 8,900  Level Oakland Center
06:29PM 36.9453 -119.8828 141° Southeast 170 196 8,900  Level Oakland Center
06:30PM 36.9089 -119.8461 141° Southeast 168 193 8,900  Level Oakland Center
06:31PM 36.8717 -119.8094 142° Southeast 168 193 8,900  Level Oakland Center
06:32PM 36.8281 -119.7886 159° South 168 193 8,900  Level Oakland Center
06:33PM 36.7836 -119.7647 157° South 171 197 8,900  Level Oakland Center
06:34PM 36.7336 -119.7306 151° Southeast 172 198 8,900  Level Oakland Center
06:35PM 36.6889 -119.7125 162° South 169 194 8,900  Level Oakland Center
06:36PM 36.6464 -119.6861 154° Southeast 171 197 8,900  Level Oakland Center
06:37PM 36.6033 -119.6611 155° Southeast 170 196 8,900  Level Oakland Center
06:38PM 36.5600 -119.6386 157° South 169 194 8,900  Level Oakland Center
06:39PM 36.5158 -119.6178 159° South 169 194 8,900  Level Oakland Center
06:40PM 36.4725 -119.5944 157° South 169 194 8,900  Level Oakland Center
06:41PM 36.4283 -119.5725 158° South 170 196 8,900  Level Oakland Center
06:42PM 36.3839 -119.5497 158° South 171 197 8,900  Level Oakland Center
06:43PM 36.3397 -119.5269 157° South 172 198 8,900  Level Oakland Center
06:44PM 36.2864 -119.4989 157° South 172 198 8,900  Level Oakland Center
06:45PM 36.2422 -119.4761 157° South 172 198 8,900  Level Oakland Center
06:46PM 36.1978 -119.4539 158° South 172 198 8,900  Level Oakland Center
06:47PM 36.1522 -119.4308 158° South 175 201 8,900  Level Oakland Center
06:48PM 36.1083 -119.4086 158° South 172 198 8,900  Level Oakland Center
06:49PM 36.0631 -119.3856 158° South 174 200 8,900  Level Oakland Center
06:50PM 36.0189 -119.3583 154° Southeast 175 201 8,900  Level Oakland Center
06:51PM 35.9758 -119.3283 151° Southeast 177 204 8,900  Level Oakland Center
06:52PM 35.9303 -119.3042 157° South 176 203 9,000 360 Climbing Oakland Center
06:53PM 35.8847 -119.2772 154° Southeast 178 205 9,700 780 Climbing Oakland Center
06:54PM 35.8414 -119.2506 153° Southeast 176 203 10,700 600 Climbing Oakland Center
06:55PM 35.7875 -119.2203 155° Southeast 176 203 11,000 60 Climbing Oakland Center
06:56PM 35.7392 -119.1900 153° Southeast 188 216 10,900 -60 Descending Oakland Center
06:57PM 35.6939 -119.1633 154° Southeast 185 213 10,900  Level Oakland Center
06:58PM 35.6508 -119.1381 154° Southeast 177 204 11,000  Climbing Oakland Center
06:59PM 35.6172 -119.1194 156° South 174 200 11,000  Level Los Angeles Center
07:00PM 35.5742 -119.0936 154° Southeast 172 198 11,000  Level Los Angeles Center
07:01PM 35.5394 -119.0725 154° Southeast 173 199 11,000  Level Los Angeles Center
07:02PM 35.4853 -119.0414 155° Southeast 176 203 11,000  Level Los Angeles Center
07:03PM 35.4403 -119.0156 155° Southeast 177 204 11,000  Level Los Angeles Center
07:04PM 35.3872 -118.9825 153° Southeast 179 206 11,000  Level Los Angeles Center
07:05PM 35.3425 -118.9583 156° South 177 204 11,000  Level Los Angeles Center
07:06PM 35.2981 -118.9317 154° Southeast 177 204 11,000  Level Los Angeles Center
07:07PM 35.2511 -118.9047 155° Southeast 181 208 11,000  Level Los Angeles Center
07:08PM 35.2042 -118.8769 154° Southeast 186 214 11,000  Level Los Angeles Center
07:09PM 35.1569 -118.8497 155° Southeast 187 215 11,000  Level Los Angeles Center
07:10PM 35.1033 -118.8172 154° Southeast 183 211 11,000  Level Los Angeles Center
07:11PM 35.0550 -118.7900 155° Southeast 190 219 11,000  Level Los Angeles Center
07:12PM 35.0086 -118.7639 155° Southeast 187 215 11,000 -60 Level Los Angeles Center
07:13PM 34.9628 -118.7367 154° Southeast 184 212 10,900 -60 Descending Los Angeles Center
07:14PM 34.9158 -118.7092 154° Southeast 186 214 10,900  Level Los Angeles Center
07:15PM 34.8669 -118.6819 155° Southeast 188 216 11,000  Climbing Los Angeles Center
07:17PM 34.8222 -118.6544 153° Southeast 181 208 11,000  Level Los Angeles Center
07:18PM 34.7761 -118.6283 155° Southeast 180 207 11,000 -420 Level Los Angeles Center
07:19PM 34.7169 -118.5972 157° South 193 222 10,200 -960 Descending Los Angeles Center
07:20PM 34.6647 -118.5667 154° Southeast 210 242 9,100 -600 Descending Los Angeles Center
07:21PM 34.6125 -118.5686 182° South 181 208 9,000 -300 Descending Los Angeles Center
07:22PM 34.5656 -118.5536 165° South 186 214 8,500 -1,020 Descending Los Angeles Center
07:23PM 34.5119 -118.5239 155° Southeast 212 244 7,000 -1,260 Descending Los Angeles Center
07:24PM 34.4617 -118.4922 153° Southeast 204 235 6,000 -1,140 Descending Los Angeles Center
07:25PM 34.4017 -118.4606 156° South 195 224 4,700 -960 Descending Los Angeles Center
07:25PM 34.3667 -118.4500 166° South 173 199 4,400 -660 Descending Southern California TRACON
07:26PM 34.3333 -118.4333 158° South 164 189 3,600 -720 Descending Southern California TRACON
07:27PM 34.2833 -118.4000 151° Southeast 150 173 3,000 -240 Descending Southern California TRACON
07:29PM 34.2833 -118.3667 90° East 122 140 3,200  Climbing Southern California TRACON
07:29PM 34.2714 -118.3644 171° South 136 157 3,000 -960 Descending Los Angeles Center
07:30PM 34.2417 -118.3678 185° South 121 139 1,900 -960 Descending Los Angeles Center
07:31PM 34.2072 -118.3617 172° South 115 132 1,100 -780 Descending Los Angeles Center
07:33PM 34.2000 -118.3500 90° East  Level FlightAware Approximate